sensor_id;sensor_type;location;lat;lon;timestamp;temperature;humidity
21580;DHT22;10951;59.656;9.666;2023-04-01T00:01:16;-3.00;59.80
21580;DHT22;10951;59.656;9.666;2023-04-01T00:03:44;-3.00;59.80
21580;DHT22;10951;59.656;9.666;2023-04-01T00:06:16;-3.00;60.00
21580;DHT22;10951;59.656;9.666;2023-04-01T00:08:44;-3.00;60.10
21580;DHT22;10951;59.656;9.666;2023-04-01T00:11:11;-3.10;59.30
21580;DHT22;10951;59.656;9.666;2023-04-01T00:13:38;-3.10;59.10
21580;DHT22;10951;59.656;9.666;2023-04-01T00:16:06;-3.00;58.80
21580;DHT22;10951;59.656;9.666;2023-04-01T00:18:46;-2.90;58.60
21580;DHT22;10951;59.656;9.666;2023-04-01T00:21:14;-2.80;58.40
21580;DHT22;10951;59.656;9.666;2023-04-01T00:23:41;-2.80;58.30
21580;DHT22;10951;59.656;9.666;2023-04-01T00:26:09;-2.90;58.40
21580;DHT22;10951;59.656;9.666;2023-04-01T00:28:37;-2.90;58.40
21580;DHT22;10951;59.656;9.666;2023-04-01T00:31:06;-2.90;58.70
21580;DHT22;10951;59.656;9.666;2023-04-01T00:33:33;-2.90;59.20
21580;DHT22;10951;59.656;9.666;2023-04-01T00:36:08;-2.90;58.90
21580;DHT22;10951;59.656;9.666;2023-04-01T00:38:37;-2.90;58.60
21580;DHT22;10951;59.656;9.666;2023-04-01T00:41:04;-2.90;58.80
21580;DHT22;10951;59.656;9.666;2023-04-01T00:43:32;-2.80;58.50
21580;DHT22;10951;59.656;9.666;2023-04-01T00:46:00;-2.80;58.50
21580;DHT22;10951;59.656;9.666;2023-04-01T00:48:30;-2.80;58.50
21580;DHT22;10951;59.656;9.666;2023-04-01T00:51:02;-2.80;58.40
21580;DHT22;10951;59.656;9.666;2023-04-01T00:53:32;-2.80;58.40
21580;DHT22;10951;59.656;9.666;2023-04-01T00:56:04;-2.90;58.60
21580;DHT22;10951;59.656;9.666;2023-04-01T00:58:35;-2.80;58.70
21580;DHT22;10951;59.656;9.666;2023-04-01T01:01:04;-2.90;58.90
21580;DHT22;10951;59.656;9.666;2023-04-01T01:03:32;-2.90;59.30
21580;DHT22;10951;59.656;9.666;2023-04-01T01:06:26;-2.90;59.20
21580;DHT22;10951;59.656;9.666;2023-04-01T01:09:02;-2.90;59.20
21580;DHT22;10951;59.656;9.666;2023-04-01T01:11:44;-2.90;59.40
21580;DHT22;10951;59.656;9.666;2023-04-01T01:22:52;-3.10;60.00
21580;DHT22;10951;59.656;9.666;2023-04-01T01:28:47;-3.10;59.80
21580;DHT22;10951;59.656;9.666;2023-04-01T01:36:33;-3.10;60.10
21580;DHT22;10951;59.656;9.666;2023-04-01T01:39:08;-3.10;59.70
21580;DHT22;10951;59.656;9.666;2023-04-01T01:41:39;-3.10;60.10
21580;DHT22;10951;59.656;9.666;2023-04-01T01:44:08;-3.10;59.90
21580;DHT22;10951;59.656;9.666;2023-04-01T01:46:38;-3.10;60.00
21580;DHT22;10951;59.656;9.666;2023-04-01T01:49:07;-3.10;60.50
21580;DHT22;10951;59.656;9.666;2023-04-01T01:51:37;-3.10;59.80
21580;DHT22;10951;59.656;9.666;2023-04-01T01:54:12;-3.10;59.60
21580;DHT22;10951;59.656;9.666;2023-04-01T01:56:42;-3.10;59.50
21580;DHT22;10951;59.656;9.666;2023-04-01T01:59:11;-3.10;59.60
21580;DHT22;10951;59.656;9.666;2023-04-01T02:01:48;-3.20;59.60
21580;DHT22;10951;59.656;9.666;2023-04-01T02:04:17;-3.30;59.80
21580;DHT22;10951;59.656;9.666;2023-04-01T02:07:07;-3.30;60.00
21580;DHT22;10951;59.656;9.666;2023-04-01T02:09:35;-3.40;60.10
21580;DHT22;10951;59.656;9.666;2023-04-01T02:12:11;-3.40;60.50
21580;DHT22;10951;59.656;9.666;2023-04-01T02:14:50;-3.50;60.50
21580;DHT22;10951;59.656;9.666;2023-04-01T02:17:22;-3.50;60.40
21580;DHT22;10951;59.656;9.666;2023-04-01T02:19:56;-3.60;60.50
21580;DHT22;10951;59.656;9.666;2023-04-01T02:22:28;-3.60;60.80
21580;DHT22;10951;59.656;9.666;2023-04-01T02:25:03;-3.70;60.80
21580;DHT22;10951;59.656;9.666;2023-04-01T02:27:34;-3.70;61.00
21580;DHT22;10951;59.656;9.666;2023-04-01T02:30:01;-3.80;61.00
21580;DHT22;10951;59.656;9.666;2023-04-01T02:32:31;-3.80;61.30
21580;DHT22;10951;59.656;9.666;2023-04-01T02:35:00;-3.80;61.40
21580;DHT22;10951;59.656;9.666;2023-04-01T02:37:29;-3.90;61.60
21580;DHT22;10951;59.656;9.666;2023-04-01T02:40:05;-4.00;61.60
21580;DHT22;10951;59.656;9.666;2023-04-01T02:42:34;-4.00;61.60
21580;DHT22;10951;59.656;9.666;2023-04-01T02:45:05;-4.00;61.50
21580;DHT22;10951;59.656;9.666;2023-04-01T02:47:32;-4.00;61.40
21580;DHT22;10951;59.656;9.666;2023-04-01T02:50:00;-4.00;61.40
21580;DHT22;10951;59.656;9.666;2023-04-01T02:52:28;-4.00;61.40
21580;DHT22;10951;59.656;9.666;2023-04-01T02:54:59;-4.00;61.60
21580;DHT22;10951;59.656;9.666;2023-04-01T02:57:26;-4.00;61.70
21580;DHT22;10951;59.656;9.666;2023-04-01T02:59:53;-4.00;61.50
21580;DHT22;10951;59.656;9.666;2023-04-01T03:02:20;-4.00;61.50
21580;DHT22;10951;59.656;9.666;2023-04-01T03:04:47;-4.10;61.30
21580;DHT22;10951;59.656;9.666;2023-04-01T03:07:14;-4.10;61.50
21580;DHT22;10951;59.656;9.666;2023-04-01T03:09:41;-4.10;61.40
21580;DHT22;10951;59.656;9.666;2023-04-01T03:12:08;-4.10;61.60
21580;DHT22;10951;59.656;9.666;2023-04-01T03:14:45;-4.20;61.60
21580;DHT22;10951;59.656;9.666;2023-04-01T03:17:12;-4.20;61.40
21580;DHT22;10951;59.656;9.666;2023-04-01T03:19:39;-4.10;61.50
21580;DHT22;10951;59.656;9.666;2023-04-01T03:22:10;-4.20;61.80
21580;DHT22;10951;59.656;9.666;2023-04-01T03:24:37;-4.20;61.50
21580;DHT22;10951;59.656;9.666;2023-04-01T03:27:04;-4.20;61.50
21580;DHT22;10951;59.656;9.666;2023-04-01T03:29:31;-4.30;61.60
21580;DHT22;10951;59.656;9.666;2023-04-01T03:31:58;-4.30;61.70
21580;DHT22;10951;59.656;9.666;2023-04-01T03:34:25;-4.30;61.70
21580;DHT22;10951;59.656;9.666;2023-04-01T03:36:52;-4.40;61.70
21580;DHT22;10951;59.656;9.666;2023-04-01T03:39:19;-4.40;61.80
21580;DHT22;10951;59.656;9.666;2023-04-01T03:41:46;-4.40;61.90
21580;DHT22;10951;59.656;9.666;2023-04-01T03:44:13;-4.40;61.90
21580;DHT22;10951;59.656;9.666;2023-04-01T03:46:41;-4.40;61.90
21580;DHT22;10951;59.656;9.666;2023-04-01T03:49:09;-4.50;61.90
21580;DHT22;10951;59.656;9.666;2023-04-01T03:51:41;-4.50;61.90
21580;DHT22;10951;59.656;9.666;2023-04-01T03:54:09;-4.60;61.90
21580;DHT22;10951;59.656;9.666;2023-04-01T03:56:37;-4.60;62.00
21580;DHT22;10951;59.656;9.666;2023-04-01T03:59:06;-4.60;62.10
21580;DHT22;10951;59.656;9.666;2023-04-01T04:01:33;-4.60;62.00
21580;DHT22;10951;59.656;9.666;2023-04-01T04:04:01;-4.60;62.00
21580;DHT22;10951;59.656;9.666;2023-04-01T04:06:28;-4.60;61.90
21580;DHT22;10951;59.656;9.666;2023-04-01T04:08:55;-4.60;62.00
21580;DHT22;10951;59.656;9.666;2023-04-01T04:11:22;-4.60;62.10
21580;DHT22;10951;59.656;9.666;2023-04-01T04:13:51;-4.70;62.00
21580;DHT22;10951;59.656;9.666;2023-04-01T04:16:20;-4.70;61.90
21580;DHT22;10951;59.656;9.666;2023-04-01T04:18:54;-4.70;61.80
21580;DHT22;10951;59.656;9.666;2023-04-01T04:21:20;-4.70;61.70
21580;DHT22;10951;59.656;9.666;2023-04-01T04:23:47;-4.80;61.70
21580;DHT22;10951;59.656;9.666;2023-04-01T04:26:16;-4.80;61.90
21580;DHT22;10951;59.656;9.666;2023-04-01T04:28:50;-4.80;61.90
21580;DHT22;10951;59.656;9.666;2023-04-01T04:31:19;-4.80;61.90
21580;DHT22;10951;59.656;9.666;2023-04-01T04:33:48;-4.80;62.00
21580;DHT22;10951;59.656;9.666;2023-04-01T04:36:15;-4.80;62.20
21580;DHT22;10951;59.656;9.666;2023-04-01T04:38:42;-4.90;62.10
21580;DHT22;10951;59.656;9.666;2023-04-01T04:41:17;-4.90;62.10
21580;DHT22;10951;59.656;9.666;2023-04-01T04:43:53;-4.90;62.10
21580;DHT22;10951;59.656;9.666;2023-04-01T04:46:22;-5.00;62.20
21580;DHT22;10951;59.656;9.666;2023-04-01T04:48:54;-5.00;62.10
21580;DHT22;10951;59.656;9.666;2023-04-01T04:51:22;-5.00;62.40
21580;DHT22;10951;59.656;9.666;2023-04-01T04:53:49;-5.10;62.40
21580;DHT22;10951;59.656;9.666;2023-04-01T04:56:20;-5.10;62.40
21580;DHT22;10951;59.656;9.666;2023-04-01T04:58:56;-5.10;62.50
21580;DHT22;10951;59.656;9.666;2023-04-01T05:01:30;-5.00;62.10
21580;DHT22;10951;59.656;9.666;2023-04-01T05:03:57;-5.10;62.20
21580;DHT22;10951;59.656;9.666;2023-04-01T05:06:24;-5.10;62.30
21580;DHT22;10951;59.656;9.666;2023-04-01T05:08:52;-5.00;62.20
21580;DHT22;10951;59.656;9.666;2023-04-01T05:11:19;-5.00;61.80
21580;DHT22;10951;59.656;9.666;2023-04-01T05:13:48;-5.00;61.40
21580;DHT22;10951;59.656;9.666;2023-04-01T05:16:19;-5.00;61.00
21580;DHT22;10951;59.656;9.666;2023-04-01T05:18:47;-5.00;60.90
21580;DHT22;10951;59.656;9.666;2023-04-01T05:21:15;-5.00;60.90
21580;DHT22;10951;59.656;9.666;2023-04-01T05:23:42;-5.10;60.90
21580;DHT22;10951;59.656;9.666;2023-04-01T05:26:14;-5.10;60.70
21580;DHT22;10951;59.656;9.666;2023-04-01T05:28:42;-5.10;60.70
21580;DHT22;10951;59.656;9.666;2023-04-01T05:31:09;-5.10;60.60
21580;DHT22;10951;59.656;9.666;2023-04-01T05:33:41;-5.10;60.80
21580;DHT22;10951;59.656;9.666;2023-04-01T05:36:11;-5.20;61.50
21580;DHT22;10951;59.656;9.666;2023-04-01T05:38:40;-5.10;60.90
21580;DHT22;10951;59.656;9.666;2023-04-01T05:41:09;-5.00;60.70
21580;DHT22;10951;59.656;9.666;2023-04-01T05:43:41;-4.90;60.20
21580;DHT22;10951;59.656;9.666;2023-04-01T05:46:31;-4.70;59.80
21580;DHT22;10951;59.656;9.666;2023-04-01T05:49:17;-4.60;59.20
21580;DHT22;10951;59.656;9.666;2023-04-01T05:51:45;-4.50;59.00
21580;DHT22;10951;59.656;9.666;2023-04-01T05:54:11;-4.50;58.80
21580;DHT22;10951;59.656;9.666;2023-04-01T05:56:39;-4.50;58.80
21580;DHT22;10951;59.656;9.666;2023-04-01T05:59:07;-4.50;58.80
21580;DHT22;10951;59.656;9.666;2023-04-01T06:01:36;-4.50;58.70
21580;DHT22;10951;59.656;9.666;2023-04-01T06:04:03;-4.50;58.70
21580;DHT22;10951;59.656;9.666;2023-04-01T06:06:32;-4.40;58.60
21580;DHT22;10951;59.656;9.666;2023-04-01T06:09:16;-4.40;59.10
21580;DHT22;10951;59.656;9.666;2023-04-01T06:15:11;-4.20;57.90
21580;DHT22;10951;59.656;9.666;2023-04-01T06:25:38;-3.90;57.30
21580;DHT22;10951;59.656;9.666;2023-04-01T06:34:36;-3.60;56.20
21580;DHT22;10951;59.656;9.666;2023-04-01T06:55:43;-2.60;54.10
21580;DHT22;10951;59.656;9.666;2023-04-01T06:58:26;-2.70;54.20
21580;DHT22;10951;59.656;9.666;2023-04-01T07:01:06;-2.70;54.40
21580;DHT22;10951;59.656;9.666;2023-04-01T07:03:35;-2.50;54.50
21580;DHT22;10951;59.656;9.666;2023-04-01T07:06:19;-2.40;53.80
21580;DHT22;10951;59.656;9.666;2023-04-01T07:08:55;-2.30;53.50
21580;DHT22;10951;59.656;9.666;2023-04-01T07:11:50;-2.20;53.50
21580;DHT22;10951;59.656;9.666;2023-04-01T07:15:04;-2.20;53.20
21580;DHT22;10951;59.656;9.666;2023-04-01T07:17:39;-1.90;53.50
21580;DHT22;10951;59.656;9.666;2023-04-01T07:20:20;-1.70;52.70
21580;DHT22;10951;59.656;9.666;2023-04-01T07:22:51;-1.60;52.40
21580;DHT22;10951;59.656;9.666;2023-04-01T07:28:14;-1.40;52.20
21580;DHT22;10951;59.656;9.666;2023-04-01T07:33:52;-1.20;51.50
21580;DHT22;10951;59.656;9.666;2023-04-01T07:36:37;-1.20;51.20
21580;DHT22;10951;59.656;9.666;2023-04-01T07:42:33;-1.10;51.40
21580;DHT22;10951;59.656;9.666;2023-04-01T07:45:09;-0.90;51.30
21580;DHT22;10951;59.656;9.666;2023-04-01T07:50:28;-0.40;50.30
21580;DHT22;10951;59.656;9.666;2023-04-01T07:53:10;-0.30;50.10
21580;DHT22;10951;59.656;9.666;2023-04-01T08:06:33;0.20;49.30
21580;DHT22;10951;59.656;9.666;2023-04-01T08:23:15;1.40;47.60
21580;DHT22;10951;59.656;9.666;2023-04-01T08:25:49;1.60;47.10
21580;DHT22;10951;59.656;9.666;2023-04-01T08:28:24;1.50;47.00
21580;DHT22;10951;59.656;9.666;2023-04-01T08:33:25;1.70;46.50
21580;DHT22;10951;59.656;9.666;2023-04-01T08:36:28;1.80;47.10
21580;DHT22;10951;59.656;9.666;2023-04-01T09:07:55;2.60;44.40
21580;DHT22;10951;59.656;9.666;2023-04-01T09:10:48;2.70;44.70
21580;DHT22;10951;59.656;9.666;2023-04-01T09:20:19;2.80;44.40
21580;DHT22;10951;59.656;9.666;2023-04-01T09:31:36;3.50;43.00
21580;DHT22;10951;59.656;9.666;2023-04-01T09:34:54;3.60;43.70
21580;DHT22;10951;59.656;9.666;2023-04-01T09:57:17;4.30;42.10
21580;DHT22;10951;59.656;9.666;2023-04-01T10:08:31;5.20;40.70
21580;DHT22;10951;59.656;9.666;2023-04-01T10:28:22;6.00;38.70
21580;DHT22;10951;59.656;9.666;2023-04-01T10:37:23;6.50;39.00
21580;DHT22;10951;59.656;9.666;2023-04-01T10:40:44;6.20;38.60
21580;DHT22;10951;59.656;9.666;2023-04-01T10:43:47;6.00;39.00
21580;DHT22;10951;59.656;9.666;2023-04-01T10:46:55;6.10;39.40
21580;DHT22;10951;59.656;9.666;2023-04-01T10:52:39;6.50;38.50
21580;DHT22;10951;59.656;9.666;2023-04-01T11:02:10;6.10;38.70
21580;DHT22;10951;59.656;9.666;2023-04-01T11:27:53;6.20;39.40
21580;DHT22;10951;59.656;9.666;2023-04-01T11:33:23;6.30;38.60
21580;DHT22;10951;59.656;9.666;2023-04-01T11:50:24;6.20;38.60
21580;DHT22;10951;59.656;9.666;2023-04-01T11:53:13;6.20;39.20
21580;DHT22;10951;59.656;9.666;2023-04-01T12:01:34;6.40;38.20
21580;DHT22;10951;59.656;9.666;2023-04-01T12:04:31;6.30;38.50
21580;DHT22;10951;59.656;9.666;2023-04-01T12:07:18;6.40;38.80
21580;DHT22;10951;59.656;9.666;2023-04-01T12:16:24;7.00;36.80
21580;DHT22;10951;59.656;9.666;2023-04-01T12:25:11;6.50;38.20
21580;DHT22;10951;59.656;9.666;2023-04-01T12:27:49;6.50;37.40
21580;DHT22;10951;59.656;9.666;2023-04-01T12:43:48;6.30;38.00
21580;DHT22;10951;59.656;9.666;2023-04-01T12:49:12;6.30;38.10
21580;DHT22;10951;59.656;9.666;2023-04-01T13:00:12;6.70;38.60
21580;DHT22;10951;59.656;9.666;2023-04-01T13:08:41;6.80;38.40
21580;DHT22;10951;59.656;9.666;2023-04-01T13:11:15;6.70;38.20
21580;DHT22;10951;59.656;9.666;2023-04-01T13:16:58;6.90;37.90
21580;DHT22;10951;59.656;9.666;2023-04-01T13:25:47;7.40;37.80
21580;DHT22;10951;59.656;9.666;2023-04-01T13:28:32;7.40;37.70
21580;DHT22;10951;59.656;9.666;2023-04-01T13:34:16;7.50;37.20
21580;DHT22;10951;59.656;9.666;2023-04-01T13:40:01;7.70;37.00
21580;DHT22;10951;59.656;9.666;2023-04-01T13:42:40;7.60;37.10
21580;DHT22;10951;59.656;9.666;2023-04-01T13:45:23;7.70;37.20
21580;DHT22;10951;59.656;9.666;2023-04-01T13:48:18;7.60;37.10
21580;DHT22;10951;59.656;9.666;2023-04-01T14:05:28;7.20;37.40
21580;DHT22;10951;59.656;9.666;2023-04-01T14:08:26;7.30;38.00
21580;DHT22;10951;59.656;9.666;2023-04-01T14:11:27;7.40;37.30
21580;DHT22;10951;59.656;9.666;2023-04-01T14:26:07;7.60;37.80
21580;DHT22;10951;59.656;9.666;2023-04-01T14:28:46;7.60;37.40
21580;DHT22;10951;59.656;9.666;2023-04-01T14:31:44;7.60;37.10
21580;DHT22;10951;59.656;9.666;2023-04-01T14:47:47;7.30;36.90
21580;DHT22;10951;59.656;9.666;2023-04-01T14:50:30;7.30;37.50
21580;DHT22;10951;59.656;9.666;2023-04-01T14:58:15;7.20;36.80
21580;DHT22;10951;59.656;9.666;2023-04-01T15:05:55;7.10;37.90
21580;DHT22;10951;59.656;9.666;2023-04-01T15:08:44;7.10;37.20
21580;DHT22;10951;59.656;9.666;2023-04-01T15:11:59;7.10;36.90
21580;DHT22;10951;59.656;9.666;2023-04-01T15:14:41;7.10;38.10
21580;DHT22;10951;59.656;9.666;2023-04-01T15:22:32;7.40;38.40
21580;DHT22;10951;59.656;9.666;2023-04-01T15:28:16;7.40;36.60
21580;DHT22;10951;59.656;9.666;2023-04-01T15:37:02;7.40;37.00
21580;DHT22;10951;59.656;9.666;2023-04-01T15:39:57;7.30;37.30
21580;DHT22;10951;59.656;9.666;2023-04-01T15:43:07;7.30;36.50
21580;DHT22;10951;59.656;9.666;2023-04-01T15:49:08;7.40;36.10
21580;DHT22;10951;59.656;9.666;2023-04-01T16:02:48;7.20;37.60
21580;DHT22;10951;59.656;9.666;2023-04-01T16:11:03;7.00;37.50
21580;DHT22;10951;59.656;9.666;2023-04-01T16:27:42;6.90;37.10
21580;DHT22;10951;59.656;9.666;2023-04-01T16:33:04;6.90;37.30
21580;DHT22;10951;59.656;9.666;2023-04-01T16:35:41;6.90;37.40
21580;DHT22;10951;59.656;9.666;2023-04-01T16:38:22;6.90;37.40
21580;DHT22;10951;59.656;9.666;2023-04-01T16:43:55;6.80;37.30
21580;DHT22;10951;59.656;9.666;2023-04-01T16:46:41;6.70;38.50
21580;DHT22;10951;59.656;9.666;2023-04-01T16:59:47;6.40;37.70
21580;DHT22;10951;59.656;9.666;2023-04-01T17:02:17;6.40;38.00
21580;DHT22;10951;59.656;9.666;2023-04-01T17:05:13;6.40;38.20
21580;DHT22;10951;59.656;9.666;2023-04-01T17:08:02;6.30;38.20
21580;DHT22;10951;59.656;9.666;2023-04-01T17:17:01;6.10;38.10
21580;DHT22;10951;59.656;9.666;2023-04-01T17:27:39;5.90;39.80
21580;DHT22;10951;59.656;9.666;2023-04-01T17:30:31;5.70;39.80
21580;DHT22;10951;59.656;9.666;2023-04-01T17:33:27;5.50;40.20
21580;DHT22;10951;59.656;9.666;2023-04-01T17:41:57;5.00;46.00
21580;DHT22;10951;59.656;9.666;2023-04-01T17:44:32;4.90;46.30
21580;DHT22;10951;59.656;9.666;2023-04-01T17:52:58;4.70;46.80
21580;DHT22;10951;59.656;9.666;2023-04-01T17:58:17;4.60;48.00
21580;DHT22;10951;59.656;9.666;2023-04-01T18:03:24;4.40;50.70
21580;DHT22;10951;59.656;9.666;2023-04-01T18:06:17;4.30;50.60
21580;DHT22;10951;59.656;9.666;2023-04-01T18:08:54;4.20;50.90
21580;DHT22;10951;59.656;9.666;2023-04-01T18:11:51;4.20;48.90
21580;DHT22;10951;59.656;9.666;2023-04-01T18:14:29;4.10;49.30
21580;DHT22;10951;59.656;9.666;2023-04-01T18:25:04;3.40;49.60
21580;DHT22;10951;59.656;9.666;2023-04-01T18:28:25;3.20;50.10
21580;DHT22;10951;59.656;9.666;2023-04-01T18:30:28;3.00;51.10
21580;DHT22;10951;59.656;9.666;2023-04-01T18:37:00;2.70;49.30
21580;DHT22;10951;59.656;9.666;2023-04-01T18:39:00;2.70;49.30
21580;DHT22;10951;59.656;9.666;2023-04-01T18:49:24;2.20;50.70
21580;DHT22;10951;59.656;9.666;2023-04-01T18:52:07;2.00;50.90
21580;DHT22;10951;59.656;9.666;2023-04-01T18:54:47;1.90;52.00
21580;DHT22;10951;59.656;9.666;2023-04-01T18:57:18;1.70;52.80
21580;DHT22;10951;59.656;9.666;2023-04-01T19:00:02;1.60;53.70
21580;DHT22;10951;59.656;9.666;2023-04-01T19:02:38;1.50;54.30
21580;DHT22;10951;59.656;9.666;2023-04-01T19:05:33;1.40;54.70
21580;DHT22;10951;59.656;9.666;2023-04-01T19:08:34;1.40;55.20
21580;DHT22;10951;59.656;9.666;2023-04-01T19:11:24;1.40;53.70
21580;DHT22;10951;59.656;9.666;2023-04-01T19:16:43;1.30;53.50
21580;DHT22;10951;59.656;9.666;2023-04-01T19:27:34;1.00;53.70
21580;DHT22;10951;59.656;9.666;2023-04-01T19:30:19;0.90;53.20
21580;DHT22;10951;59.656;9.666;2023-04-01T19:38:41;0.60;53.70
21580;DHT22;10951;59.656;9.666;2023-04-01T19:41:19;0.50;53.80
21580;DHT22;10951;59.656;9.666;2023-04-01T19:44:12;0.40;54.40
21580;DHT22;10951;59.656;9.666;2023-04-01T19:52:00;0.20;54.40
21580;DHT22;10951;59.656;9.666;2023-04-01T20:00:30;0.10;54.70
21580;DHT22;10951;59.656;9.666;2023-04-01T20:08:42;-0.10;55.30
21580;DHT22;10951;59.656;9.666;2023-04-01T20:11:42;-0.20;54.70
21580;DHT22;10951;59.656;9.666;2023-04-01T20:14:24;-0.20;55.60
21580;DHT22;10951;59.656;9.666;2023-04-01T20:19:40;-0.10;56.40
21580;DHT22;10951;59.656;9.666;2023-04-01T20:24:53;0.00;56.00
21580;DHT22;10951;59.656;9.666;2023-04-01T20:27:33;-0.10;55.50
21580;DHT22;10951;59.656;9.666;2023-04-01T20:38:58;-0.30;56.60
21580;DHT22;10951;59.656;9.666;2023-04-01T20:50:39;-0.10;57.00
21580;DHT22;10951;59.656;9.666;2023-04-01T20:58:46;-0.20;54.30
21580;DHT22;10951;59.656;9.666;2023-04-01T21:01:44;-0.30;54.60
21580;DHT22;10951;59.656;9.666;2023-04-01T21:04:33;-0.40;55.00
21580;DHT22;10951;59.656;9.666;2023-04-01T21:07:34;-0.50;56.40
21580;DHT22;10951;59.656;9.666;2023-04-01T21:13:11;-0.50;56.80
21580;DHT22;10951;59.656;9.666;2023-04-01T21:27:09;-0.90;57.70
21580;DHT22;10951;59.656;9.666;2023-04-01T21:32:58;-1.00;56.90
21580;DHT22;10951;59.656;9.666;2023-04-01T21:43:59;-1.30;58.20
21580;DHT22;10951;59.656;9.666;2023-04-01T21:58:30;-1.20;57.60
21580;DHT22;10951;59.656;9.666;2023-04-01T22:01:23;-1.20;57.30
21580;DHT22;10951;59.656;9.666;2023-04-01T22:04:33;-1.30;57.20
21580;DHT22;10951;59.656;9.666;2023-04-01T22:07:20;-1.50;57.30
21580;DHT22;10951;59.656;9.666;2023-04-01T22:12:54;-1.50;57.10
21580;DHT22;10951;59.656;9.666;2023-04-01T22:15:29;-1.50;57.20
21580;DHT22;10951;59.656;9.666;2023-04-01T22:18:13;-1.60;57.40
21580;DHT22;10951;59.656;9.666;2023-04-01T22:23:31;-1.60;57.50
21580;DHT22;10951;59.656;9.666;2023-04-01T22:31:54;-1.60;57.50
21580;DHT22;10951;59.656;9.666;2023-04-01T22:37:22;-1.70;57.10
21580;DHT22;10951;59.656;9.666;2023-04-01T22:43:01;-1.70;56.90
21580;DHT22;10951;59.656;9.666;2023-04-01T22:45:34;-1.70;56.90
21580;DHT22;10951;59.656;9.666;2023-04-01T22:48:16;-1.70;57.30
21580;DHT22;10951;59.656;9.666;2023-04-01T22:53:35;-1.80;57.70
21580;DHT22;10951;59.656;9.666;2023-04-01T22:56:11;-1.90;57.80
21580;DHT22;10951;59.656;9.666;2023-04-01T22:58:45;-1.90;58.20
21580;DHT22;10951;59.656;9.666;2023-04-01T23:01:18;-1.90;57.90
21580;DHT22;10951;59.656;9.666;2023-04-01T23:03:49;-1.90;57.80
21580;DHT22;10951;59.656;9.666;2023-04-01T23:06:27;-1.90;57.70
21580;DHT22;10951;59.656;9.666;2023-04-01T23:09:02;-1.90;57.20
21580;DHT22;10951;59.656;9.666;2023-04-01T23:11:44;-1.90;57.20
21580;DHT22;10951;59.656;9.666;2023-04-01T23:19:45;-1.90;56.90
21580;DHT22;10951;59.656;9.666;2023-04-01T23:22:34;-1.90;57.30
21580;DHT22;10951;59.656;9.666;2023-04-01T23:27:37;-2.00;57.10
21580;DHT22;10951;59.656;9.666;2023-04-01T23:38:38;-2.10;57.50
21580;DHT22;10951;59.656;9.666;2023-04-01T23:41:25;-2.10;57.30
21580;DHT22;10951;59.656;9.666;2023-04-01T23:44:05;-2.10;57.00
21580;DHT22;10951;59.656;9.666;2023-04-01T23:46:35;-2.10;56.70
21580;DHT22;10951;59.656;9.666;2023-04-01T23:49:03;-2.10;56.80
21580;DHT22;10951;59.656;9.666;2023-04-01T23:51:49;-2.10;56.60
21580;DHT22;10951;59.656;9.666;2023-04-01T23:54:23;-2.20;56.60
21580;DHT22;10951;59.656;9.666;2023-04-01T23:56:54;-2.20;57.20
21580;DHT22;10951;59.656;9.666;2023-04-01T23:59:34;-2.20;56.80
